Terminal Aerodrome Forecast
Issued by NWS

Home | Current Version | Previous Version | Graphics & Text | Print | Product List | Glossary On
Versions: 1 2 3 4 5 6 7 8 9 10 11 12 13 14 15 16 17 18 19 20 21 22 23 24 25 26 27 28 29 30 31
000
FTUS45 KGGW 230403 AAB
TAFGDV
TAF AMD
KGDV 230403Z 2304/2324 10012KT P6SM VCTS SCT100CB
      TEMPO 2304/2305 VRB25G35KT TSRAGS OVC060CB
     FM230600 09009KT P6SM SCT110
     FM231000 31010KT P6SM FEW110
     FM231200 30014KT P6SM FEW200
     FM232100 29020G28KT P6SM FEW110=

USA.gov is the U.S. government's official web portal to all federal, state and local government web resources and services.